createdAt,value
2023-02-15T00:02:38.958Z,-0.40
2023-02-15T00:06:43.266Z,-0.40
2023-02-15T00:10:43.836Z,-0.40
2023-02-15T00:14:47.124Z,-0.40
2023-02-15T00:18:47.560Z,-0.40
2023-02-15T00:22:48.646Z,-0.40
2023-02-15T00:26:51.731Z,-0.40
2023-02-15T00:30:55.301Z,-0.50
2023-02-15T00:34:57.361Z,-0.40
2023-02-15T00:38:58.370Z,-0.50
2023-02-15T00:42:59.743Z,-0.50
2023-02-15T00:47:02.910Z,-0.50
2023-02-15T00:51:05.348Z,-0.50
2023-02-15T00:55:06.162Z,-0.50
2023-02-15T00:59:06.879Z,-0.50
2023-02-15T01:03:10.719Z,-0.40
2023-02-15T01:07:11.284Z,-0.50
2023-02-15T01:11:16.296Z,-0.50
2023-02-15T01:15:17.153Z,-0.60
2023-02-15T01:19:20.832Z,-0.70
2023-02-15T01:23:21.068Z,-0.70
2023-02-15T01:27:21.674Z,-0.70
2023-02-15T01:31:25.108Z,-0.70
2023-02-15T01:35:28.867Z,-0.70
2023-02-15T01:39:29.912Z,-0.70
2023-02-15T01:43:44.952Z,-0.80
2023-02-15T01:47:51.648Z,-0.80
2023-02-15T01:51:56.305Z,-0.80
2023-02-15T01:56:04.885Z,-0.80
2023-02-15T02:00:10.080Z,-0.90
2023-02-15T02:04:20.945Z,-0.90
2023-02-15T02:08:24.143Z,-0.90
2023-02-15T02:12:27.623Z,-1.00
2023-02-15T02:16:38.480Z,-1.00
2023-02-15T02:21:12.267Z,-1.00
2023-02-15T02:25:45.410Z,-1.00
2023-02-15T02:30:52.100Z,-1.00
2023-02-15T02:35:05.354Z,-1.00
2023-02-15T02:39:32.872Z,-0.90
2023-02-15T02:43:42.300Z,-1.00
2023-02-15T02:47:51.134Z,-0.90
2023-02-15T02:52:06.950Z,-0.90
2023-02-15T02:56:23.321Z,-1.00
2023-02-15T03:00:27.552Z,-0.90
2023-02-15T03:04:35.398Z,-0.90
2023-02-15T03:08:49.267Z,-1.00
2023-02-15T03:12:50.402Z,-1.10
2023-02-15T03:16:55.345Z,-1.10
2023-02-15T03:20:59.354Z,-1.00
2023-02-15T03:25:10.889Z,-0.90
2023-02-15T03:29:14.438Z,-1.00
2023-02-15T03:33:17.225Z,-1.00
2023-02-15T03:37:29.855Z,-1.00
2023-02-15T03:41:41.304Z,-1.00
2023-02-15T03:45:55.889Z,-1.00
2023-02-15T03:50:25.580Z,-1.00
2023-02-15T03:54:42.493Z,-1.00
2023-02-15T03:58:58.086Z,-1.00
2023-02-15T04:03:24.313Z,-1.00
2023-02-15T04:07:25.011Z,-1.10
2023-02-15T04:11:23.034Z,-1.10
2023-02-15T04:15:38.416Z,-1.10
2023-02-15T04:19:51.522Z,-1.00
2023-02-15T04:24:04.247Z,-1.00
2023-02-15T04:28:05.185Z,-1.00
2023-02-15T04:32:08.681Z,-1.10
2023-02-15T04:36:10.315Z,-1.10
2023-02-15T04:40:13.703Z,-1.10
2023-02-15T04:44:14.661Z,-1.10
2023-02-15T04:48:19.340Z,-1.10
2023-02-15T04:52:20.777Z,-1.00
2023-02-15T04:56:21.302Z,-1.10
2023-02-15T05:00:25.070Z,-1.10
2023-02-15T05:04:28.487Z,-1.10
2023-02-15T05:08:28.971Z,-1.10
2023-02-15T05:12:30.777Z,-1.10
2023-02-15T05:16:31.433Z,-1.20
2023-02-15T05:20:36.065Z,-1.20
2023-02-15T05:24:49.218Z,-1.30
2023-02-15T05:28:49.533Z,-1.30
2023-02-15T05:32:50.142Z,-1.30
2023-02-15T05:36:53.448Z,-1.40
2023-02-15T05:40:56.307Z,-1.30
2023-02-15T05:44:56.609Z,-1.40
2023-02-15T05:48:57.272Z,-1.40
2023-02-15T05:53:00.647Z,-1.30
2023-02-15T05:57:01.860Z,-1.30
2023-02-15T06:01:03.198Z,-1.30
2023-02-15T06:05:05.026Z,-1.30
2023-02-15T06:09:07.970Z,-1.30
2023-02-15T06:13:08.368Z,-1.30
2023-02-15T06:17:08.635Z,-1.40
2023-02-15T06:21:09.190Z,-1.40
2023-02-15T06:25:20.128Z,-1.40
2023-02-15T06:29:20.597Z,-1.40
2023-02-15T06:33:21.503Z,-1.50
2023-02-15T06:37:22.664Z,-1.50
2023-02-15T06:41:26.934Z,-1.50
2023-02-15T06:45:27.574Z,-1.50
2023-02-15T06:49:27.950Z,-1.50
2023-02-15T06:53:28.518Z,-1.60
2023-02-15T06:57:31.528Z,-1.60
2023-02-15T07:01:31.877Z,-1.50
2023-02-15T07:05:32.745Z,-1.50
2023-02-15T07:09:33.153Z,-1.50
2023-02-15T07:13:37.666Z,-1.50
2023-02-15T07:17:38.257Z,-1.50
2023-02-15T07:21:38.901Z,-1.50
2023-02-15T07:25:39.334Z,-1.50
2023-02-15T07:29:42.178Z,-1.50
2023-02-15T07:33:42.670Z,-1.50
2023-02-15T07:37:43.067Z,-1.50
2023-02-15T07:41:43.322Z,-1.40
2023-02-15T07:45:48.736Z,-1.40
2023-02-15T07:49:50.483Z,-1.40
2023-02-15T07:53:52.669Z,-1.40
2023-02-15T07:57:55.605Z,-1.30
2023-02-15T08:01:58.770Z,-1.30
2023-02-15T08:06:02.492Z,-1.40
2023-02-15T08:10:03.259Z,-1.40
2023-02-15T08:14:06.447Z,-1.30
2023-02-15T08:18:09.554Z,-1.30
2023-02-15T08:22:12.259Z,-1.20
2023-02-15T08:26:12.985Z,-1.00
2023-02-15T08:30:15.669Z,-0.90
2023-02-15T08:34:22.234Z,-1.00
2023-02-15T08:38:22.897Z,-1.00
2023-02-15T08:42:24.272Z,-1.00
2023-02-15T08:46:27.966Z,-0.90
2023-02-15T08:50:31.745Z,-0.90
2023-02-15T08:54:32.409Z,-0.80
2023-02-15T08:58:34.710Z,-0.70
2023-02-15T09:02:34.936Z,-0.70
2023-02-15T09:06:38.770Z,-0.60
2023-02-15T09:10:39.460Z,-0.50
2023-02-15T09:14:40.074Z,-0.60
2023-02-15T09:18:42.756Z,-0.50
2023-02-15T09:22:46.030Z,-0.50
2023-02-15T09:26:51.575Z,-0.30
2023-02-15T09:30:52.230Z,-0.30
2023-02-15T09:34:54.883Z,-0.30
2023-02-15T09:39:05.156Z,-0.20
2023-02-15T09:43:28.797Z,-0.10
2023-02-15T09:48:13.498Z,0.00
2023-02-15T09:52:54.112Z,0.20
2023-02-15T09:57:04.748Z,0.30
2023-02-15T10:01:16.408Z,0.40
2023-02-15T10:05:39.129Z,0.50
2023-02-15T10:10:04.343Z,0.60
2023-02-15T10:14:49.136Z,0.50
2023-02-15T10:19:03.348Z,0.70
2023-02-15T10:23:37.135Z,0.80
2023-02-15T10:27:47.812Z,0.90
2023-02-15T10:31:56.203Z,1.00
2023-02-15T10:36:13.168Z,1.10
2023-02-15T10:40:31.386Z,0.90
2023-02-15T10:44:51.249Z,1.20
2023-02-15T10:49:21.637Z,1.30
2023-02-15T10:53:47.199Z,1.40
2023-02-15T10:58:07.189Z,1.60
2023-02-15T11:02:26.880Z,1.60
2023-02-15T11:06:31.806Z,1.70
2023-02-15T11:10:42.414Z,1.70
2023-02-15T11:14:55.194Z,1.70
2023-02-15T11:19:06.403Z,1.80
2023-02-15T11:23:19.679Z,1.80
2023-02-15T11:27:28.114Z,1.60
2023-02-15T11:31:46.541Z,1.50
2023-02-15T11:35:55.752Z,1.70
2023-02-15T11:39:58.963Z,1.80
2023-02-15T11:44:09.061Z,1.90
2023-02-15T11:48:16.489Z,2.20
2023-02-15T11:52:21.415Z,2.20
2023-02-15T11:56:29.037Z,2.20
2023-02-15T12:00:39.688Z,1.80
2023-02-15T12:04:48.241Z,1.70
2023-02-15T12:08:58.685Z,1.80
2023-02-15T12:13:20.363Z,1.90
2023-02-15T12:17:22.010Z,1.90
2023-02-15T12:21:34.124Z,1.90
2023-02-15T12:25:41.742Z,2.10
2023-02-15T12:29:53.366Z,2.10
2023-02-15T12:33:58.457Z,2.10
2023-02-15T12:38:05.879Z,2.00
2023-02-15T12:42:18.425Z,1.90
2023-02-15T12:46:27.858Z,2.00
2023-02-15T12:50:36.113Z,2.20
2023-02-15T12:54:43.883Z,2.10
2023-02-15T12:58:47.101Z,2.10
2023-02-15T13:02:54.198Z,2.00
2023-02-15T13:06:58.103Z,2.30
2023-02-15T13:11:03.728Z,2.20
2023-02-15T13:15:06.066Z,2.40
2023-02-15T13:19:18.333Z,2.40
2023-02-15T13:23:31.280Z,2.50
2023-02-15T13:27:41.255Z,2.50
2023-02-15T13:31:44.654Z,2.20
2023-02-15T13:36:00.252Z,2.00
2023-02-15T13:40:11.620Z,1.90
2023-02-15T13:44:25.769Z,1.90
2023-02-15T13:48:50.852Z,1.70
2023-02-15T13:53:02.336Z,1.60
2023-02-15T13:57:30.273Z,1.60
2023-02-15T14:01:44.600Z,1.60
2023-02-15T14:06:18.791Z,1.60
2023-02-15T14:10:42.006Z,1.60
2023-02-15T14:15:12.056Z,1.70
2023-02-15T14:19:29.631Z,1.60
2023-02-15T14:23:46.072Z,1.70
2023-02-15T14:28:03.852Z,1.70
2023-02-15T14:32:15.985Z,1.70
2023-02-15T14:36:23.634Z,1.70
2023-02-15T14:40:50.985Z,1.70
2023-02-15T14:45:05.112Z,1.50
2023-02-15T14:49:15.490Z,1.60
2023-02-15T14:53:43.340Z,1.50
2023-02-15T14:57:43.649Z,1.40
2023-02-15T15:01:59.328Z,1.30
2023-02-15T15:06:05.932Z,1.30
2023-02-15T15:10:30.503Z,1.40
2023-02-15T15:14:47.380Z,1.40
2023-02-15T15:18:52.790Z,1.20
2023-02-15T15:22:53.889Z,1.20
2023-02-15T15:27:44.060Z,1.20
2023-02-15T15:31:54.551Z,1.30
2023-02-15T15:36:42.988Z,1.20
2023-02-15T15:41:22.050Z,1.20
2023-02-15T15:46:03.249Z,1.20
2023-02-15T15:50:05.444Z,1.20
2023-02-15T15:54:08.737Z,1.10
2023-02-15T15:58:12.008Z,1.00
2023-02-15T16:02:19.557Z,0.90
2023-02-15T16:06:32.667Z,0.90
2023-02-15T16:10:39.058Z,0.80
2023-02-15T16:14:42.682Z,0.80
2023-02-15T16:18:44.603Z,0.80
2023-02-15T16:22:45.291Z,0.60
2023-02-15T16:27:34.996Z,0.50
2023-02-15T16:31:35.371Z,0.50
2023-02-15T16:35:37.525Z,0.50
2023-02-15T16:39:46.169Z,0.40
2023-02-15T16:43:53.421Z,0.40
2023-02-15T16:48:03.145Z,0.40
2023-02-15T16:52:08.137Z,0.30
2023-02-15T16:56:10.337Z,0.30
2023-02-15T17:00:24.560Z,0.30
2023-02-15T17:04:35.655Z,0.20
2023-02-15T17:08:45.283Z,0.20
2023-02-15T17:12:51.702Z,0.20
2023-02-15T17:17:05.152Z,0.20
2023-02-15T17:21:16.266Z,0.20
2023-02-15T17:25:27.834Z,0.10
2023-02-15T17:29:38.433Z,0.10
2023-02-15T17:33:43.822Z,0.10
2023-02-15T17:37:50.650Z,0.00
2023-02-15T17:41:54.073Z,0.00
2023-02-15T17:45:56.882Z,0.00
2023-02-15T17:50:00.469Z,0.00
2023-02-15T17:54:16.167Z,0.00
2023-02-15T17:58:22.863Z,-0.10
2023-02-15T18:02:37.546Z,0.00
2023-02-15T18:06:57.035Z,-0.10
2023-02-15T18:11:14.718Z,-0.10
2023-02-15T18:15:15.209Z,-0.10
2023-02-15T18:19:23.576Z,-0.10
2023-02-15T18:23:26.565Z,-0.10
2023-02-15T18:27:27.070Z,-0.10
2023-02-15T18:31:28.774Z,-0.10
2023-02-15T18:35:34.012Z,-0.10
2023-02-15T18:39:45.720Z,-0.20
2023-02-15T18:43:49.051Z,-0.30
2023-02-15T18:47:51.030Z,-0.40
2023-02-15T18:51:51.355Z,-0.40
2023-02-15T18:55:55.005Z,-0.50
2023-02-15T18:59:55.578Z,-0.50
2023-02-15T19:03:57.192Z,-0.60
2023-02-15T19:07:58.753Z,-0.60
2023-02-15T19:12:03.072Z,-0.50
2023-02-15T19:16:06.542Z,-0.50
2023-02-15T19:20:08.180Z,-0.50
2023-02-15T19:24:18.129Z,-0.50
2023-02-15T19:28:32.779Z,-0.50
2023-02-15T19:32:33.803Z,-0.60
2023-02-15T19:36:40.675Z,-0.60
2023-02-15T19:40:41.557Z,-0.60
2023-02-15T19:44:45.224Z,-0.60
2023-02-15T19:48:45.754Z,-0.60
2023-02-15T19:52:47.462Z,-0.70
2023-02-15T19:56:48.166Z,-0.70
2023-02-15T20:00:53.887Z,-0.70
2023-02-15T20:04:55.180Z,-0.80
2023-02-15T20:09:02.934Z,-0.80
2023-02-15T20:13:05.366Z,-0.80
2023-02-15T20:17:10.264Z,-0.80
2023-02-15T20:21:18.863Z,-0.80
2023-02-15T20:25:25.038Z,-0.80
2023-02-15T20:29:26.569Z,-0.80
2023-02-15T20:33:29.977Z,-0.80
2023-02-15T20:37:35.186Z,-0.80
2023-02-15T20:41:40.238Z,-0.80
2023-02-15T20:45:40.567Z,-0.90
2023-02-15T20:49:44.096Z,-0.90
2023-02-15T20:53:46.364Z,-0.90
2023-02-15T20:57:47.345Z,-0.90
2023-02-15T21:01:49.547Z,-0.90
2023-02-15T21:05:53.125Z,-0.90
2023-02-15T21:09:54.561Z,-0.90
2023-02-15T21:13:55.211Z,-0.90
2023-02-15T21:17:55.875Z,-1.00
2023-02-15T21:22:01.779Z,-1.10
2023-02-15T21:26:02.913Z,-1.00
2023-02-15T21:30:06.855Z,-1.10
2023-02-15T21:34:08.040Z,-1.30
2023-02-15T21:38:18.626Z,-1.40
2023-02-15T21:42:31.359Z,-1.40
2023-02-15T21:46:44.264Z,-1.40
2023-02-15T21:50:57.723Z,-1.40
2023-02-15T21:55:03.300Z,-1.40
2023-02-15T21:59:04.021Z,-1.40
2023-02-15T22:03:04.832Z,-1.40
2023-02-15T22:07:05.317Z,-1.40
2023-02-15T22:11:16.207Z,-1.40
2023-02-15T22:15:24.200Z,-1.40
2023-02-15T22:19:24.614Z,-1.40
2023-02-15T22:23:25.703Z,-1.40
2023-02-15T22:27:31.725Z,-1.50
2023-02-15T22:31:32.445Z,-1.50
2023-02-15T22:35:37.518Z,-1.40
2023-02-15T22:39:37.996Z,-1.50
2023-02-15T22:43:45.099Z,-1.50
2023-02-15T22:47:45.590Z,-1.50
2023-02-15T22:51:47.576Z,-1.50
2023-02-15T22:55:50.066Z,-1.60
2023-02-15T22:59:53.431Z,-1.50
2023-02-15T23:03:53.812Z,-1.50
2023-02-15T23:07:54.756Z,-1.50
2023-02-15T23:11:57.055Z,-1.50
2023-02-15T23:16:04.435Z,-1.60
2023-02-15T23:20:04.972Z,-1.60
2023-02-15T23:24:22.587Z,-1.60
2023-02-15T23:28:29.231Z,-1.50
2023-02-15T23:32:34.077Z,-1.60
2023-02-15T23:36:37.634Z,-1.70
2023-02-15T23:40:50.292Z,-1.60
2023-02-15T23:44:51.924Z,-1.70
2023-02-15T23:48:56.875Z,-1.70
2023-02-15T23:52:59.083Z,-1.70
2023-02-15T23:57:04.446Z,-1.70
